sensor_id;sensor_type;location;lat;lon;timestamp;temperature;humidity
827;DHT22;395;48.132;11.608;2023-06-04T00:00:07;17.40;1.00
827;DHT22;395;48.132;11.608;2023-06-04T00:02:33;17.30;1.00
827;DHT22;395;48.132;11.608;2023-06-04T00:04:59;17.30;1.00
827;DHT22;395;48.132;11.608;2023-06-04T00:07:24;17.20;1.00
827;DHT22;395;48.132;11.608;2023-06-04T00:09:51;17.20;1.00
827;DHT22;395;48.132;11.608;2023-06-04T00:12:17;17.10;1.00
827;DHT22;395;48.132;11.608;2023-06-04T00:14:43;17.10;1.00
827;DHT22;395;48.132;11.608;2023-06-04T00:17:09;17.10;1.00
827;DHT22;395;48.132;11.608;2023-06-04T00:19:37;17.10;1.00
827;DHT22;395;48.132;11.608;2023-06-04T00:22:03;17.00;1.00
827;DHT22;395;48.132;11.608;2023-06-04T00:24:29;17.10;1.00
827;DHT22;395;48.132;11.608;2023-06-04T00:26:54;17.00;1.00
827;DHT22;395;48.132;11.608;2023-06-04T00:29:20;17.00;1.00
827;DHT22;395;48.132;11.608;2023-06-04T00:31:46;17.00;1.00
827;DHT22;395;48.132;11.608;2023-06-04T00:34:11;17.00;1.00
827;DHT22;395;48.132;11.608;2023-06-04T00:36:37;17.00;1.00
827;DHT22;395;48.132;11.608;2023-06-04T00:39:02;16.90;1.00
827;DHT22;395;48.132;11.608;2023-06-04T00:41:28;16.90;1.00
827;DHT22;395;48.132;11.608;2023-06-04T00:43:54;16.90;1.00
827;DHT22;395;48.132;11.608;2023-06-04T00:46:32;16.80;1.00
827;DHT22;395;48.132;11.608;2023-06-04T00:49:18;16.80;1.00
827;DHT22;395;48.132;11.608;2023-06-04T00:52:25;16.80;1.00
827;DHT22;395;48.132;11.608;2023-06-04T00:54:52;16.80;1.00
827;DHT22;395;48.132;11.608;2023-06-04T00:57:21;16.70;1.00
827;DHT22;395;48.132;11.608;2023-06-04T01:25:40;16.30;1.00
827;DHT22;395;48.132;11.608;2023-06-04T01:28:08;16.30;1.00
827;DHT22;395;48.132;11.608;2023-06-04T01:30:37;16.30;1.00
827;DHT22;395;48.132;11.608;2023-06-04T01:33:12;16.30;1.00
827;DHT22;395;48.132;11.608;2023-06-04T01:35:38;16.30;1.00
827;DHT22;395;48.132;11.608;2023-06-04T01:38:05;16.30;1.00
827;DHT22;395;48.132;11.608;2023-06-04T01:40:30;16.30;1.00
827;DHT22;395;48.132;11.608;2023-06-04T01:42:57;16.30;1.00
827;DHT22;395;48.132;11.608;2023-06-04T01:45:23;16.30;1.00
827;DHT22;395;48.132;11.608;2023-06-04T01:47:49;16.20;1.00
827;DHT22;395;48.132;11.608;2023-06-04T01:50:15;16.20;1.00
827;DHT22;395;48.132;11.608;2023-06-04T01:52:41;16.20;1.00
827;DHT22;395;48.132;11.608;2023-06-04T01:55:08;16.10;1.00
827;DHT22;395;48.132;11.608;2023-06-04T01:57:35;16.00;1.00
827;DHT22;395;48.132;11.608;2023-06-04T02:00:05;16.00;1.00
827;DHT22;395;48.132;11.608;2023-06-04T02:02:33;16.00;1.00
827;DHT22;395;48.132;11.608;2023-06-04T02:04:59;16.00;1.00
827;DHT22;395;48.132;11.608;2023-06-04T02:07:25;16.00;1.00
827;DHT22;395;48.132;11.608;2023-06-04T02:09:51;15.90;1.00
827;DHT22;395;48.132;11.608;2023-06-04T02:12:17;15.90;1.00
827;DHT22;395;48.132;11.608;2023-06-04T02:14:43;15.90;1.00
827;DHT22;395;48.132;11.608;2023-06-04T02:17:11;15.90;1.00
827;DHT22;395;48.132;11.608;2023-06-04T02:19:44;15.90;1.00
827;DHT22;395;48.132;11.608;2023-06-04T02:22:17;15.90;1.00
827;DHT22;395;48.132;11.608;2023-06-04T02:24:43;15.80;1.00
827;DHT22;395;48.132;11.608;2023-06-04T02:27:09;15.80;1.00
827;DHT22;395;48.132;11.608;2023-06-04T02:29:36;15.70;1.00
827;DHT22;395;48.132;11.608;2023-06-04T02:32:03;15.70;1.00
827;DHT22;395;48.132;11.608;2023-06-04T02:34:28;15.70;1.00
827;DHT22;395;48.132;11.608;2023-06-04T02:36:54;15.80;1.00
827;DHT22;395;48.132;11.608;2023-06-04T02:39:20;15.70;1.00
827;DHT22;395;48.132;11.608;2023-06-04T02:41:46;15.70;1.00
827;DHT22;395;48.132;11.608;2023-06-04T02:44:11;15.70;1.00
827;DHT22;395;48.132;11.608;2023-06-04T02:46:38;15.70;1.00
827;DHT22;395;48.132;11.608;2023-06-04T02:49:04;15.80;1.00
827;DHT22;395;48.132;11.608;2023-06-04T02:51:30;15.80;1.00
827;DHT22;395;48.132;11.608;2023-06-04T02:53:56;15.70;1.00
827;DHT22;395;48.132;11.608;2023-06-04T02:56:22;15.70;1.00
827;DHT22;395;48.132;11.608;2023-06-04T02:58:54;15.60;1.00
827;DHT22;395;48.132;11.608;2023-06-04T03:01:22;15.70;1.00
827;DHT22;395;48.132;11.608;2023-06-04T03:03:48;15.60;1.00
827;DHT22;395;48.132;11.608;2023-06-04T03:06:15;15.60;1.00
827;DHT22;395;48.132;11.608;2023-06-04T03:08:41;15.60;1.00
827;DHT22;395;48.132;11.608;2023-06-04T03:11:07;15.60;1.00
827;DHT22;395;48.132;11.608;2023-06-04T03:13:33;15.50;1.00
827;DHT22;395;48.132;11.608;2023-06-04T03:15:59;15.50;1.00
827;DHT22;395;48.132;11.608;2023-06-04T03:18:30;15.50;1.00
827;DHT22;395;48.132;11.608;2023-06-04T03:20:56;15.50;1.00
827;DHT22;395;48.132;11.608;2023-06-04T03:23:22;15.50;1.00
827;DHT22;395;48.132;11.608;2023-06-04T03:25:47;15.40;1.00
827;DHT22;395;48.132;11.608;2023-06-04T03:28:13;15.40;1.00
827;DHT22;395;48.132;11.608;2023-06-04T03:30:40;15.30;1.00
827;DHT22;395;48.132;11.608;2023-06-04T03:33:07;15.10;1.00
827;DHT22;395;48.132;11.608;2023-06-04T03:35:32;15.00;1.00
827;DHT22;395;48.132;11.608;2023-06-04T03:37:58;14.90;1.00
827;DHT22;395;48.132;11.608;2023-06-04T03:40:25;14.80;1.00
827;DHT22;395;48.132;11.608;2023-06-04T03:42:50;14.70;1.00
827;DHT22;395;48.132;11.608;2023-06-04T03:45:16;14.70;1.00
827;DHT22;395;48.132;11.608;2023-06-04T03:47:42;15.00;1.00
827;DHT22;395;48.132;11.608;2023-06-04T03:50:08;15.00;1.00
827;DHT22;395;48.132;11.608;2023-06-04T03:52:33;15.00;1.00
827;DHT22;395;48.132;11.608;2023-06-04T03:54:59;15.00;1.00
827;DHT22;395;48.132;11.608;2023-06-04T03:57:25;15.00;1.00
827;DHT22;395;48.132;11.608;2023-06-04T03:59:51;15.10;1.00
827;DHT22;395;48.132;11.608;2023-06-04T04:02:17;15.10;1.00
827;DHT22;395;48.132;11.608;2023-06-04T04:04:44;15.10;1.00
827;DHT22;395;48.132;11.608;2023-06-04T04:07:10;15.10;1.00
827;DHT22;395;48.132;11.608;2023-06-04T04:09:36;15.10;1.00
827;DHT22;395;48.132;11.608;2023-06-04T04:12:03;15.00;1.00
827;DHT22;395;48.132;11.608;2023-06-04T04:14:28;15.10;1.00
827;DHT22;395;48.132;11.608;2023-06-04T04:16:54;15.10;1.00
827;DHT22;395;48.132;11.608;2023-06-04T04:19:20;15.20;1.00
827;DHT22;395;48.132;11.608;2023-06-04T04:21:46;15.30;1.00
827;DHT22;395;48.132;11.608;2023-06-04T04:24:24;15.20;1.00
827;DHT22;395;48.132;11.608;2023-06-04T04:26:49;15.20;1.00
827;DHT22;395;48.132;11.608;2023-06-04T04:29:19;15.30;1.00
827;DHT22;395;48.132;11.608;2023-06-04T04:31:49;15.30;1.00
827;DHT22;395;48.132;11.608;2023-06-04T04:34:14;15.30;1.00
827;DHT22;395;48.132;11.608;2023-06-04T04:36:40;15.30;1.00
827;DHT22;395;48.132;11.608;2023-06-04T04:39:06;15.20;1.00
827;DHT22;395;48.132;11.608;2023-06-04T04:41:32;15.30;1.00
827;DHT22;395;48.132;11.608;2023-06-04T04:44:03;15.30;1.00
827;DHT22;395;48.132;11.608;2023-06-04T04:46:29;15.40;1.00
827;DHT22;395;48.132;11.608;2023-06-04T04:48:55;15.40;1.00
827;DHT22;395;48.132;11.608;2023-06-04T04:51:21;15.40;1.00
827;DHT22;395;48.132;11.608;2023-06-04T04:53:47;15.40;1.00
827;DHT22;395;48.132;11.608;2023-06-04T04:56:13;15.40;1.00
827;DHT22;395;48.132;11.608;2023-06-04T04:58:38;15.40;1.00
827;DHT22;395;48.132;11.608;2023-06-04T05:01:04;15.40;1.00
827;DHT22;395;48.132;11.608;2023-06-04T05:03:30;15.40;1.00
827;DHT22;395;48.132;11.608;2023-06-04T05:05:56;15.40;1.00
827;DHT22;395;48.132;11.608;2023-06-04T05:08:21;15.50;1.00
827;DHT22;395;48.132;11.608;2023-06-04T05:10:47;15.40;1.00
827;DHT22;395;48.132;11.608;2023-06-04T05:13:13;15.40;1.00
827;DHT22;395;48.132;11.608;2023-06-04T05:15:38;15.50;1.00
827;DHT22;395;48.132;11.608;2023-06-04T05:18:07;15.60;1.00
827;DHT22;395;48.132;11.608;2023-06-04T05:20:34;15.60;1.00
827;DHT22;395;48.132;11.608;2023-06-04T05:23:03;15.70;1.00
827;DHT22;395;48.132;11.608;2023-06-04T05:25:29;15.70;1.00
827;DHT22;395;48.132;11.608;2023-06-04T05:27:58;15.70;1.00
827;DHT22;395;48.132;11.608;2023-06-04T05:30:24;15.70;1.00
827;DHT22;395;48.132;11.608;2023-06-04T05:32:50;15.80;1.00
827;DHT22;395;48.132;11.608;2023-06-04T05:35:16;15.80;1.00
827;DHT22;395;48.132;11.608;2023-06-04T05:37:42;15.80;1.00
827;DHT22;395;48.132;11.608;2023-06-04T05:40:11;15.70;1.00
827;DHT22;395;48.132;11.608;2023-06-04T05:42:37;15.80;1.00
827;DHT22;395;48.132;11.608;2023-06-04T05:45:04;15.90;1.00
827;DHT22;395;48.132;11.608;2023-06-04T05:47:30;16.00;1.00
827;DHT22;395;48.132;11.608;2023-06-04T05:49:57;16.00;1.00
827;DHT22;395;48.132;11.608;2023-06-04T05:52:23;16.00;1.00
827;DHT22;395;48.132;11.608;2023-06-04T05:54:49;16.10;1.00
827;DHT22;395;48.132;11.608;2023-06-04T05:57:15;16.10;1.00
827;DHT22;395;48.132;11.608;2023-06-04T05:59:40;16.10;1.00
827;DHT22;395;48.132;11.608;2023-06-04T06:02:06;16.10;1.00
827;DHT22;395;48.132;11.608;2023-06-04T06:04:32;16.20;1.00
827;DHT22;395;48.132;11.608;2023-06-04T06:06:58;16.20;1.00
827;DHT22;395;48.132;11.608;2023-06-04T06:09:24;16.30;1.00
827;DHT22;395;48.132;11.608;2023-06-04T06:11:49;16.20;1.00
827;DHT22;395;48.132;11.608;2023-06-04T06:14:15;16.30;1.00
827;DHT22;395;48.132;11.608;2023-06-04T06:16:41;16.40;1.00
827;DHT22;395;48.132;11.608;2023-06-04T06:19:06;16.30;1.00
827;DHT22;395;48.132;11.608;2023-06-04T06:21:32;16.40;1.00
827;DHT22;395;48.132;11.608;2023-06-04T06:23:58;16.40;1.00
827;DHT22;395;48.132;11.608;2023-06-04T06:26:24;16.50;1.00
827;DHT22;395;48.132;11.608;2023-06-04T06:28:50;16.60;1.00
827;DHT22;395;48.132;11.608;2023-06-04T06:31:16;16.60;1.00
827;DHT22;395;48.132;11.608;2023-06-04T06:33:42;16.70;1.00
827;DHT22;395;48.132;11.608;2023-06-04T06:36:10;16.70;1.00
827;DHT22;395;48.132;11.608;2023-06-04T06:38:39;16.70;1.00
827;DHT22;395;48.132;11.608;2023-06-04T06:41:06;16.70;1.00
827;DHT22;395;48.132;11.608;2023-06-04T06:43:32;16.80;1.00
827;DHT22;395;48.132;11.608;2023-06-04T06:45:58;16.80;1.00
827;DHT22;395;48.132;11.608;2023-06-04T06:48:24;16.80;1.00
827;DHT22;395;48.132;11.608;2023-06-04T06:50:49;16.90;1.00
827;DHT22;395;48.132;11.608;2023-06-04T06:53:16;17.00;1.00
827;DHT22;395;48.132;11.608;2023-06-04T06:55:41;17.00;1.00
827;DHT22;395;48.132;11.608;2023-06-04T06:58:07;17.10;1.00
827;DHT22;395;48.132;11.608;2023-06-04T07:00:33;17.10;1.00
827;DHT22;395;48.132;11.608;2023-06-04T07:02:58;17.20;1.00
827;DHT22;395;48.132;11.608;2023-06-04T07:05:24;17.30;1.00
827;DHT22;395;48.132;11.608;2023-06-04T07:07:50;17.40;1.00
827;DHT22;395;48.132;11.608;2023-06-04T07:10:15;17.50;1.00
827;DHT22;395;48.132;11.608;2023-06-04T07:12:41;17.60;1.00
827;DHT22;395;48.132;11.608;2023-06-04T07:15:07;17.60;1.00
827;DHT22;395;48.132;11.608;2023-06-04T07:17:34;17.70;1.00
827;DHT22;395;48.132;11.608;2023-06-04T07:20:00;17.70;1.00
827;DHT22;395;48.132;11.608;2023-06-04T07:22:26;17.70;1.00
827;DHT22;395;48.132;11.608;2023-06-04T07:24:52;17.80;1.00
827;DHT22;395;48.132;11.608;2023-06-04T07:27:19;17.80;1.00
827;DHT22;395;48.132;11.608;2023-06-04T07:29:44;17.90;1.00
827;DHT22;395;48.132;11.608;2023-06-04T07:32:11;18.00;1.00
827;DHT22;395;48.132;11.608;2023-06-04T07:34:38;18.10;1.00
827;DHT22;395;48.132;11.608;2023-06-04T07:37:04;18.10;1.00
827;DHT22;395;48.132;11.608;2023-06-04T07:39:30;18.20;1.00
827;DHT22;395;48.132;11.608;2023-06-04T07:41:56;18.30;1.00
827;DHT22;395;48.132;11.608;2023-06-04T07:44:22;18.30;1.00
827;DHT22;395;48.132;11.608;2023-06-04T07:46:48;18.20;1.00
827;DHT22;395;48.132;11.608;2023-06-04T07:49:14;18.20;1.00
827;DHT22;395;48.132;11.608;2023-06-04T07:51:39;18.10;1.00
827;DHT22;395;48.132;11.608;2023-06-04T07:54:05;18.10;1.00
827;DHT22;395;48.132;11.608;2023-06-04T07:56:31;18.20;1.00
827;DHT22;395;48.132;11.608;2023-06-04T07:58:57;18.40;1.00
827;DHT22;395;48.132;11.608;2023-06-04T08:01:22;18.30;1.00
827;DHT22;395;48.132;11.608;2023-06-04T08:03:49;18.40;1.00
827;DHT22;395;48.132;11.608;2023-06-04T08:06:15;18.50;1.00
827;DHT22;395;48.132;11.608;2023-06-04T08:08:45;18.30;1.00
827;DHT22;395;48.132;11.608;2023-06-04T08:11:14;18.30;1.00
827;DHT22;395;48.132;11.608;2023-06-04T08:13:39;18.40;1.00
827;DHT22;395;48.132;11.608;2023-06-04T08:16:06;18.60;1.00
827;DHT22;395;48.132;11.608;2023-06-04T08:18:38;18.60;1.00
827;DHT22;395;48.132;11.608;2023-06-04T08:21:05;18.70;1.00
827;DHT22;395;48.132;11.608;2023-06-04T08:23:31;18.70;1.00
827;DHT22;395;48.132;11.608;2023-06-04T08:25:57;18.80;1.00
827;DHT22;395;48.132;11.608;2023-06-04T08:28:24;18.90;1.00
827;DHT22;395;48.132;11.608;2023-06-04T08:30:50;18.90;1.00
827;DHT22;395;48.132;11.608;2023-06-04T08:33:16;18.90;1.00
827;DHT22;395;48.132;11.608;2023-06-04T08:35:41;19.00;1.00
827;DHT22;395;48.132;11.608;2023-06-04T08:38:07;19.00;1.00
827;DHT22;395;48.132;11.608;2023-06-04T08:40:33;19.10;1.00
827;DHT22;395;48.132;11.608;2023-06-04T08:43:01;19.10;1.00
827;DHT22;395;48.132;11.608;2023-06-04T08:45:27;19.10;1.00
827;DHT22;395;48.132;11.608;2023-06-04T08:47:53;19.10;1.00
827;DHT22;395;48.132;11.608;2023-06-04T08:50:23;19.10;1.00
827;DHT22;395;48.132;11.608;2023-06-04T08:52:56;19.20;1.00
827;DHT22;395;48.132;11.608;2023-06-04T08:55:22;19.20;1.00
827;DHT22;395;48.132;11.608;2023-06-04T08:57:51;19.20;1.00
827;DHT22;395;48.132;11.608;2023-06-04T09:00:18;19.20;1.00
827;DHT22;395;48.132;11.608;2023-06-04T09:02:45;19.20;1.00
827;DHT22;395;48.132;11.608;2023-06-04T09:05:17;19.20;1.00
827;DHT22;395;48.132;11.608;2023-06-04T09:07:45;19.30;1.00
827;DHT22;395;48.132;11.608;2023-06-04T09:10:12;19.30;1.00
827;DHT22;395;48.132;11.608;2023-06-04T09:12:43;19.40;1.00
827;DHT22;395;48.132;11.608;2023-06-04T09:15:11;19.40;1.00
827;DHT22;395;48.132;11.608;2023-06-04T09:17:37;19.40;1.00
827;DHT22;395;48.132;11.608;2023-06-04T09:20:03;19.40;1.00
827;DHT22;395;48.132;11.608;2023-06-04T09:22:35;19.50;1.00
827;DHT22;395;48.132;11.608;2023-06-04T09:25:05;19.50;1.00
827;DHT22;395;48.132;11.608;2023-06-04T09:27:41;19.60;1.00
827;DHT22;395;48.132;11.608;2023-06-04T09:30:07;19.60;1.00
827;DHT22;395;48.132;11.608;2023-06-04T09:32:34;19.70;1.00
827;DHT22;395;48.132;11.608;2023-06-04T09:35:14;19.70;1.00
827;DHT22;395;48.132;11.608;2023-06-04T09:37:42;19.70;1.00
827;DHT22;395;48.132;11.608;2023-06-04T09:40:08;19.70;1.00
827;DHT22;395;48.132;11.608;2023-06-04T09:42:48;19.80;1.00
827;DHT22;395;48.132;11.608;2023-06-04T09:45:30;19.80;1.00
827;DHT22;395;48.132;11.608;2023-06-04T09:47:58;19.80;1.00
827;DHT22;395;48.132;11.608;2023-06-04T09:50:31;19.90;1.00
827;DHT22;395;48.132;11.608;2023-06-04T09:52:59;19.90;1.00
827;DHT22;395;48.132;11.608;2023-06-04T09:55:25;19.90;1.00
827;DHT22;395;48.132;11.608;2023-06-04T09:57:51;19.90;1.00
827;DHT22;395;48.132;11.608;2023-06-04T10:00:19;20.00;1.00
827;DHT22;395;48.132;11.608;2023-06-04T10:02:46;20.10;1.00
827;DHT22;395;48.132;11.608;2023-06-04T10:05:13;20.10;1.00
827;DHT22;395;48.132;11.608;2023-06-04T10:07:45;20.10;1.00
827;DHT22;395;48.132;11.608;2023-06-04T10:10:15;20.20;1.00
827;DHT22;395;48.132;11.608;2023-06-04T10:12:42;20.20;1.00
827;DHT22;395;48.132;11.608;2023-06-04T10:15:11;20.30;1.00
827;DHT22;395;48.132;11.608;2023-06-04T10:17:38;20.30;1.00
827;DHT22;395;48.132;11.608;2023-06-04T10:20:06;20.30;1.00
827;DHT22;395;48.132;11.608;2023-06-04T10:22:33;20.30;1.00
827;DHT22;395;48.132;11.608;2023-06-04T10:25:00;20.40;1.00
827;DHT22;395;48.132;11.608;2023-06-04T10:27:26;20.40;1.00
827;DHT22;395;48.132;11.608;2023-06-04T10:29:52;20.40;1.00
827;DHT22;395;48.132;11.608;2023-06-04T10:32:18;20.40;1.00
827;DHT22;395;48.132;11.608;2023-06-04T10:34:46;20.50;1.00
827;DHT22;395;48.132;11.608;2023-06-04T10:37:25;20.50;1.00
827;DHT22;395;48.132;11.608;2023-06-04T10:39:55;20.50;1.00
827;DHT22;395;48.132;11.608;2023-06-04T10:42:22;20.50;1.00
827;DHT22;395;48.132;11.608;2023-06-04T10:44:53;20.50;1.00
827;DHT22;395;48.132;11.608;2023-06-04T10:47:25;20.50;1.00
827;DHT22;395;48.132;11.608;2023-06-04T10:49:53;20.60;1.00
827;DHT22;395;48.132;11.608;2023-06-04T10:52:19;20.60;1.00
827;DHT22;395;48.132;11.608;2023-06-04T10:54:46;20.70;1.00
827;DHT22;395;48.132;11.608;2023-06-04T10:57:18;20.70;1.00
827;DHT22;395;48.132;11.608;2023-06-04T10:59:54;20.70;1.00
827;DHT22;395;48.132;11.608;2023-06-04T11:02:20;20.80;1.00
827;DHT22;395;48.132;11.608;2023-06-04T11:04:46;20.90;1.00
827;DHT22;395;48.132;11.608;2023-06-04T11:07:12;20.90;1.00
827;DHT22;395;48.132;11.608;2023-06-04T11:09:48;20.90;1.00
827;DHT22;395;48.132;11.608;2023-06-04T11:12:14;20.90;1.00
827;DHT22;395;48.132;11.608;2023-06-04T11:14:40;21.00;1.00
827;DHT22;395;48.132;11.608;2023-06-04T11:17:09;21.10;1.00
827;DHT22;395;48.132;11.608;2023-06-04T11:19:36;21.10;1.00
827;DHT22;395;48.132;11.608;2023-06-04T11:22:02;21.20;1.00
827;DHT22;395;48.132;11.608;2023-06-04T11:24:28;21.20;1.00
827;DHT22;395;48.132;11.608;2023-06-04T11:26:57;21.20;1.00
827;DHT22;395;48.132;11.608;2023-06-04T11:29:25;21.30;1.00
827;DHT22;395;48.132;11.608;2023-06-04T11:31:51;21.30;1.00
827;DHT22;395;48.132;11.608;2023-06-04T11:34:27;21.40;1.00
827;DHT22;395;48.132;11.608;2023-06-04T11:36:53;21.40;1.00
827;DHT22;395;48.132;11.608;2023-06-04T11:39:20;21.40;1.00
827;DHT22;395;48.132;11.608;2023-06-04T11:41:46;21.50;1.00
827;DHT22;395;48.132;11.608;2023-06-04T11:44:12;21.50;1.00
827;DHT22;395;48.132;11.608;2023-06-04T11:46:44;21.50;1.00
827;DHT22;395;48.132;11.608;2023-06-04T11:49:16;21.50;1.00
827;DHT22;395;48.132;11.608;2023-06-04T11:51:51;21.50;1.00
827;DHT22;395;48.132;11.608;2023-06-04T11:54:17;21.70;1.00
827;DHT22;395;48.132;11.608;2023-06-04T11:56:44;21.80;1.00
827;DHT22;395;48.132;11.608;2023-06-04T11:59:12;21.70;1.00
827;DHT22;395;48.132;11.608;2023-06-04T12:01:40;21.40;1.00
827;DHT22;395;48.132;11.608;2023-06-04T12:04:16;21.40;1.00
827;DHT22;395;48.132;11.608;2023-06-04T12:06:52;21.60;1.00
827;DHT22;395;48.132;11.608;2023-06-04T12:09:29;21.80;1.00
827;DHT22;395;48.132;11.608;2023-06-04T12:12:02;21.90;1.00
827;DHT22;395;48.132;11.608;2023-06-04T12:14:28;22.10;1.00
827;DHT22;395;48.132;11.608;2023-06-04T12:16:59;22.30;1.00
827;DHT22;395;48.132;11.608;2023-06-04T12:19:25;22.40;1.00
827;DHT22;395;48.132;11.608;2023-06-04T12:22:04;22.50;1.00
827;DHT22;395;48.132;11.608;2023-06-04T12:24:34;22.60;1.00
827;DHT22;395;48.132;11.608;2023-06-04T12:27:05;22.50;1.00
827;DHT22;395;48.132;11.608;2023-06-04T12:29:32;22.40;1.00
827;DHT22;395;48.132;11.608;2023-06-04T12:32:08;22.30;1.00
827;DHT22;395;48.132;11.608;2023-06-04T12:34:35;22.20;1.00
827;DHT22;395;48.132;11.608;2023-06-04T12:37:01;22.20;1.00
827;DHT22;395;48.132;11.608;2023-06-04T12:39:32;22.20;1.00
827;DHT22;395;48.132;11.608;2023-06-04T12:41:58;22.50;1.00
827;DHT22;395;48.132;11.608;2023-06-04T12:44:24;22.60;1.00
827;DHT22;395;48.132;11.608;2023-06-04T12:46:50;22.70;1.00
827;DHT22;395;48.132;11.608;2023-06-04T12:49:15;22.70;1.00
827;DHT22;395;48.132;11.608;2023-06-04T12:51:41;22.60;1.00
827;DHT22;395;48.132;11.608;2023-06-04T12:54:07;22.80;1.00
827;DHT22;395;48.132;11.608;2023-06-04T12:56:33;22.90;1.00
827;DHT22;395;48.132;11.608;2023-06-04T12:58:59;23.10;1.00
827;DHT22;395;48.132;11.608;2023-06-04T13:01:24;23.10;1.00
827;DHT22;395;48.132;11.608;2023-06-04T13:03:50;23.00;1.00
827;DHT22;395;48.132;11.608;2023-06-04T13:06:16;23.20;1.00
827;DHT22;395;48.132;11.608;2023-06-04T13:08:42;23.20;1.00
827;DHT22;395;48.132;11.608;2023-06-04T13:11:08;23.30;1.00
827;DHT22;395;48.132;11.608;2023-06-04T13:13:35;23.20;1.00
827;DHT22;395;48.132;11.608;2023-06-04T13:16:02;23.30;1.00
827;DHT22;395;48.132;11.608;2023-06-04T13:18:27;23.50;1.00
827;DHT22;395;48.132;11.608;2023-06-04T13:20:53;23.60;1.00
827;DHT22;395;48.132;11.608;2023-06-04T13:23:19;23.80;1.00
827;DHT22;395;48.132;11.608;2023-06-04T13:25:44;23.90;1.00
827;DHT22;395;48.132;11.608;2023-06-04T13:28:11;23.80;1.00
827;DHT22;395;48.132;11.608;2023-06-04T13:30:38;23.30;1.00
827;DHT22;395;48.132;11.608;2023-06-04T13:33:04;23.20;1.00
827;DHT22;395;48.132;11.608;2023-06-04T13:35:30;23.30;1.00
827;DHT22;395;48.132;11.608;2023-06-04T13:37:56;23.20;1.00
827;DHT22;395;48.132;11.608;2023-06-04T13:40:22;23.30;1.00
827;DHT22;395;48.132;11.608;2023-06-04T13:42:48;23.60;1.00
827;DHT22;395;48.132;11.608;2023-06-04T13:45:13;23.60;1.00
827;DHT22;395;48.132;11.608;2023-06-04T13:47:39;23.50;1.00
827;DHT22;395;48.132;11.608;2023-06-04T13:50:05;23.50;1.00
827;DHT22;395;48.132;11.608;2023-06-04T13:52:32;23.60;1.00
827;DHT22;395;48.132;11.608;2023-06-04T13:54:57;23.70;1.00
827;DHT22;395;48.132;11.608;2023-06-04T13:57:27;23.80;1.00
827;DHT22;395;48.132;11.608;2023-06-04T13:59:53;23.80;1.00
827;DHT22;395;48.132;11.608;2023-06-04T14:02:19;23.80;1.00
827;DHT22;395;48.132;11.608;2023-06-04T14:04:49;23.90;1.00
827;DHT22;395;48.132;11.608;2023-06-04T14:07:15;23.70;1.00
827;DHT22;395;48.132;11.608;2023-06-04T14:09:40;23.50;1.00
827;DHT22;395;48.132;11.608;2023-06-04T14:12:08;23.50;1.00
827;DHT22;395;48.132;11.608;2023-06-04T14:14:34;23.60;1.00
827;DHT22;395;48.132;11.608;2023-06-04T14:17:03;23.80;1.00
827;DHT22;395;48.132;11.608;2023-06-04T14:19:29;23.60;1.00
827;DHT22;395;48.132;11.608;2023-06-04T14:21:55;23.60;1.00
827;DHT22;395;48.132;11.608;2023-06-04T14:24:21;23.90;1.00
827;DHT22;395;48.132;11.608;2023-06-04T14:26:46;23.80;1.00
827;DHT22;395;48.132;11.608;2023-06-04T14:29:12;24.00;1.00
827;DHT22;395;48.132;11.608;2023-06-04T14:31:38;24.20;1.00
827;DHT22;395;48.132;11.608;2023-06-04T14:34:04;24.20;1.00
827;DHT22;395;48.132;11.608;2023-06-04T14:36:31;24.20;1.00
827;DHT22;395;48.132;11.608;2023-06-04T14:38:57;24.00;1.00
827;DHT22;395;48.132;11.608;2023-06-04T14:41:23;24.00;1.00
827;DHT22;395;48.132;11.608;2023-06-04T14:43:48;23.70;1.00
827;DHT22;395;48.132;11.608;2023-06-04T14:46:14;23.80;1.00
827;DHT22;395;48.132;11.608;2023-06-04T14:48:40;23.70;1.00
827;DHT22;395;48.132;11.608;2023-06-04T14:51:05;23.60;1.00
827;DHT22;395;48.132;11.608;2023-06-04T14:53:31;23.50;1.00
827;DHT22;395;48.132;11.608;2023-06-04T14:55:56;23.30;1.00
827;DHT22;395;48.132;11.608;2023-06-04T14:58:22;23.30;1.00
827;DHT22;395;48.132;11.608;2023-06-04T15:00:48;23.10;1.00
827;DHT22;395;48.132;11.608;2023-06-04T15:03:13;23.10;1.00
827;DHT22;395;48.132;11.608;2023-06-04T15:05:39;23.30;1.00
827;DHT22;395;48.132;11.608;2023-06-04T15:08:05;23.40;1.00
827;DHT22;395;48.132;11.608;2023-06-04T15:10:31;23.50;1.00
827;DHT22;395;48.132;11.608;2023-06-04T15:12:59;23.40;1.00
827;DHT22;395;48.132;11.608;2023-06-04T15:15:25;23.60;1.00
827;DHT22;395;48.132;11.608;2023-06-04T15:17:51;23.80;1.00
827;DHT22;395;48.132;11.608;2023-06-04T15:20:17;23.90;1.00
827;DHT22;395;48.132;11.608;2023-06-04T15:22:42;24.10;1.00
827;DHT22;395;48.132;11.608;2023-06-04T15:25:08;24.10;1.00
827;DHT22;395;48.132;11.608;2023-06-04T15:27:34;24.30;1.00
827;DHT22;395;48.132;11.608;2023-06-04T15:30:00;24.30;1.00
827;DHT22;395;48.132;11.608;2023-06-04T15:32:26;24.40;1.00
827;DHT22;395;48.132;11.608;2023-06-04T15:34:51;24.30;1.00
827;DHT22;395;48.132;11.608;2023-06-04T15:37:17;24.50;1.00
827;DHT22;395;48.132;11.608;2023-06-04T15:39:43;24.50;1.00
827;DHT22;395;48.132;11.608;2023-06-04T15:42:08;24.60;1.00
827;DHT22;395;48.132;11.608;2023-06-04T15:44:34;24.80;1.00
827;DHT22;395;48.132;11.608;2023-06-04T15:47:00;24.90;1.00
827;DHT22;395;48.132;11.608;2023-06-04T15:49:27;25.00;1.00
827;DHT22;395;48.132;11.608;2023-06-04T15:51:53;25.10;1.00
827;DHT22;395;48.132;11.608;2023-06-04T15:54:19;25.10;1.00
827;DHT22;395;48.132;11.608;2023-06-04T15:56:45;25.00;1.00
827;DHT22;395;48.132;11.608;2023-06-04T15:59:10;25.10;1.00
827;DHT22;395;48.132;11.608;2023-06-04T16:01:36;24.90;1.00
827;DHT22;395;48.132;11.608;2023-06-04T16:04:02;24.60;1.00
827;DHT22;395;48.132;11.608;2023-06-04T16:06:28;24.60;1.00
827;DHT22;395;48.132;11.608;2023-06-04T16:08:53;24.40;1.00
827;DHT22;395;48.132;11.608;2023-06-04T16:11:19;24.20;1.00
827;DHT22;395;48.132;11.608;2023-06-04T16:13:44;23.90;1.00
827;DHT22;395;48.132;11.608;2023-06-04T16:16:10;24.10;1.00
827;DHT22;395;48.132;11.608;2023-06-04T16:18:38;24.20;1.00
827;DHT22;395;48.132;11.608;2023-06-04T16:21:03;24.30;1.00
827;DHT22;395;48.132;11.608;2023-06-04T16:23:29;24.30;1.00
827;DHT22;395;48.132;11.608;2023-06-04T16:25:55;23.80;1.00
827;DHT22;395;48.132;11.608;2023-06-04T16:28:20;23.80;1.00
827;DHT22;395;48.132;11.608;2023-06-04T16:30:46;23.60;1.00
827;DHT22;395;48.132;11.608;2023-06-04T16:33:12;23.60;1.00
827;DHT22;395;48.132;11.608;2023-06-04T16:35:37;23.80;1.00
827;DHT22;395;48.132;11.608;2023-06-04T16:38:03;23.80;1.00
827;DHT22;395;48.132;11.608;2023-06-04T16:40:29;23.70;1.00
827;DHT22;395;48.132;11.608;2023-06-04T16:42:55;23.70;1.00
827;DHT22;395;48.132;11.608;2023-06-04T16:45:21;23.80;1.00
827;DHT22;395;48.132;11.608;2023-06-04T16:47:48;23.90;1.00
827;DHT22;395;48.132;11.608;2023-06-04T16:50:16;24.00;1.00
827;DHT22;395;48.132;11.608;2023-06-04T16:52:43;24.20;1.00
827;DHT22;395;48.132;11.608;2023-06-04T16:55:09;24.40;1.00
827;DHT22;395;48.132;11.608;2023-06-04T16:57:35;24.20;1.00